Time;durP1;ratioP1;P1;durP2;ratioP2;P2;SDS_P1;SDS_P2;PMS_P1;PMS_P2;Temp;Humidity;BMP_temperature;BMP_pressure;BME280_temperature;BME280_humidity;BME280_pressure;Samples;Min_cycle;Max_cycle;Signal;HPM_P1;HPM_P2
2023/11/26 00:01:28;;;;;;;;;;;14.00;84.10;;;;;;4186340;28;19931;-56
2023/11/26 00:04:09;;;;;;;;;;;14.00;84.10;;;;;;4171111;28;19982;-56
2023/11/26 00:06:51;;;;;;;;;;;14.00;84.30;;;;;;4159478;28;19932;-55
2023/11/26 00:09:33;;;;;;;;;;;14.00;84.40;;;;;;4154807;28;20312;-56
2023/11/26 00:12:14;;;;;;;;;;;14.00;84.40;;;;;;4175200;28;20069;-55
2023/11/26 00:14:56;;;;;;;;;;;14.00;84.50;;;;;;4175600;28;20388;-56
2023/11/26 00:17:37;;;;;;;;;;;14.00;84.60;;;;;;4173905;28;20000;-52
2023/11/26 00:20:18;;;;;;;;;;;14.00;84.70;;;;;;4153288;28;20022;-51
2023/11/26 00:22:59;;;;;;;;;;;14.00;84.80;;;;;;4172546;28;19932;-49
2023/11/26 00:25:39;;;;;;;;;;;13.90;84.80;;;;;;4172745;28;19936;-52
2023/11/26 00:28:20;;;;;;;;;;;13.90;85.70;;;;;;4176797;28;20002;-50
2023/11/26 00:31:02;;;;;;;;;;;13.90;84.90;;;;;;4175511;28;20375;-52
2023/11/26 00:33:48;;;;;;;;;;;13.90;85.00;;;;;;4189650;28;20009;-50
2023/11/26 00:36:29;;;;;;;;;;;13.90;85.10;;;;;;4189307;28;20049;-51
2023/11/26 00:39:09;;;;;;;;;;;13.90;85.10;;;;;;4191105;28;20009;-49
2023/11/26 00:41:50;;;;;;;;;;;13.90;85.20;;;;;;4191155;28;20283;-51
2023/11/26 00:44:31;;;;;;;;;;;13.90;85.30;;;;;;4172656;28;20082;-50
2023/11/26 00:47:13;;;;;;;;;;;13.80;85.30;;;;;;4159175;28;19982;-53
2023/11/26 00:49:58;;;;;;;;;;;13.90;85.40;;;;;;4159647;28;20295;-51
2023/11/26 00:52:40;;;;;;;;;;;13.90;85.50;;;;;;4168088;28;19946;-48
2023/11/26 00:55:21;;;;;;;;;;;13.80;85.50;;;;;;4173707;28;19978;-51
2023/11/26 00:58:02;;;;;;;;;;;13.80;85.50;;;;;;4186653;28;19932;-52
2023/11/26 01:00:45;;;;;;;;;;;13.80;85.60;;;;;;4173771;28;20058;-50
2023/11/26 01:03:27;;;;;;;;;;;13.80;85.60;;;;;;4175550;28;20039;-54
2023/11/26 01:06:08;;;;;;;;;;;13.80;85.60;;;;;;4176691;28;20050;-49
2023/11/26 01:08:48;;;;;;;;;;;13.80;85.70;;;;;;4183687;28;20465;-52
2023/11/26 01:11:29;;;;;;;;;;;13.80;85.80;;;;;;4182392;28;20409;-54
2023/11/26 01:14:10;;;;;;;;;;;13.80;85.90;;;;;;4180172;28;19955;-48
2023/11/26 01:16:51;;;;;;;;;;;13.80;85.80;;;;;;4189554;28;19936;-50
2023/11/26 01:19:34;;;;;;;;;;;13.80;85.90;;;;;;4189508;28;19951;-53
2023/11/26 01:22:15;;;;;;;;;;;13.80;86.90;;;;;;4199787;28;19931;-51
2023/11/26 01:24:55;;;;;;;;;;;13.80;86.10;;;;;;4184145;28;20017;-52
2023/11/26 01:27:36;;;;;;;;;;;13.80;86.10;;;;;;4172330;28;20711;-49
2023/11/26 01:30:17;;;;;;;;;;;13.70;86.10;;;;;;4181301;28;19947;-51
2023/11/26 01:32:58;;;;;;;;;;;13.70;87.10;;;;;;4172972;28;19936;-50
2023/11/26 01:35:42;;;;;;;;;;;13.70;86.30;;;;;;4188122;28;20472;-55
2023/11/26 01:38:23;;;;;;;;;;;13.70;86.40;;;;;;4187977;28;20062;-51
2023/11/26 01:41:05;;;;;;;;;;;13.70;86.40;;;;;;4172887;28;20473;-52
2023/11/26 01:43:49;;;;;;;;;;;13.70;86.50;;;;;;4183194;28;19935;-54
2023/11/26 01:46:32;;;;;;;;;;;13.70;87.40;;;;;;4198118;28;20066;-48
2023/11/26 01:49:13;;;;;;;;;;;13.70;86.60;;;;;;4170757;28;19935;-48
2023/11/26 01:51:58;;;;;;;;;;;13.70;86.60;;;;;;4174588;28;20055;-51
2023/11/26 01:54:39;;;;;;;;;;;13.80;87.30;;;;;;4180899;28;20081;-52
2023/11/26 01:57:21;;;;;;;;;;;13.90;87.00;;;;;;4180873;28;19956;-52
2023/11/26 02:00:02;;;;;;;;;;;14.10;86.60;;;;;;4172747;28;19935;-53
2023/11/26 02:02:51;;;;;;;;;;;14.20;86.20;;;;;;4174487;28;19935;-52
2023/11/26 02:05:32;;;;;;;;;;;14.30;85.80;;;;;;4163692;28;20382;-50
2023/11/26 02:08:15;;;;;;;;;;;14.30;85.50;;;;;;4172363;28;19936;-52
2023/11/26 02:10:55;;;;;;;;;;;14.40;85.30;;;;;;4182719;28;19991;-53
2023/11/26 02:13:44;;;;;;;;;;;14.40;85.20;;;;;;4166606;28;19932;-54
2023/11/26 02:16:26;;;;;;;;;;;14.50;85.10;;;;;;4138430;28;20134;-54
2023/11/26 02:19:11;;;;;;;;;;;14.60;84.80;;;;;;4162166;28;19935;-51
2023/11/26 02:21:52;;;;;;;;;;;14.60;84.50;;;;;;4185147;28;19978;-56
2023/11/26 02:24:38;;;;;;;;;;;14.70;84.20;;;;;;4182789;28;19931;-53
2023/11/26 02:27:19;;;;;;;;;;;14.70;83.90;;;;;;4187365;28;19935;-55
2023/11/26 02:30:00;;;;;;;;;;;14.70;83.80;;;;;;4183408;28;20292;-54
2023/11/26 02:32:44;;;;;;;;;;;14.70;83.80;;;;;;4176939;28;19936;-55
2023/11/26 02:35:26;;;;;;;;;;;14.60;83.80;;;;;;4188427;28;20302;-55
2023/11/26 02:38:07;;;;;;;;;;;14.70;83.90;;;;;;4171331;28;19935;-57
2023/11/26 02:40:49;;;;;;;;;;;14.70;83.80;;;;;;4177479;28;19932;-56
2023/11/26 02:43:30;;;;;;;;;;;14.80;84.40;;;;;;4186742;28;20438;-55
2023/11/26 02:46:11;;;;;;;;;;;14.80;83.40;;;;;;4186120;28;19959;-53
2023/11/26 02:48:51;;;;;;;;;;;14.90;83.30;;;;;;4157999;28;20284;-56
2023/11/26 02:51:32;;;;;;;;;;;14.90;83.40;;;;;;4171546;28;19957;-53
2023/11/26 02:54:13;;;;;;;;;;;14.90;83.40;;;;;;4185098;28;19932;-56
2023/11/26 02:56:55;;;;;;;;;;;14.90;83.30;;;;;;4185448;28;19931;-55
2023/11/26 02:59:36;;;;;;;;;;;14.90;82.90;;;;;;4167485;28;20292;-55
2023/11/26 03:02:18;;;;;;;;;;;15.00;82.70;;;;;;4170944;28;19932;-53
2023/11/26 03:05:05;;;;;;;;;;;15.10;82.40;;;;;;4167821;28;19932;-55
2023/11/26 03:07:47;;;;;;;;;;;15.10;82.50;;;;;;4171278;28;19932;-55
2023/11/26 03:13:27;;;;;;;;;;;15.10;82.30;;;;;;4170687;28;19935;-55
2023/11/26 03:16:11;;;;;;;;;;;15.20;82.30;;;;;;4171841;28;19940;-55
2023/11/26 03:18:52;;;;;;;;;;;15.20;82.10;;;;;;4173778;28;20298;-52
2023/11/26 03:21:33;;;;;;;;;;;15.20;82.20;;;;;;4186442;28;19986;-55
2023/11/26 03:24:15;;;;;;;;;;;15.20;82.10;;;;;;4172747;28;19963;-55
2023/11/26 03:26:55;;;;;;;;;;;15.20;82.00;;;;;;4186919;28;20017;-56
2023/11/26 03:29:37;;;;;;;;;;;15.20;81.90;;;;;;4185809;28;20790;-54
2023/11/26 03:32:18;;;;;;;;;;;15.30;82.10;;;;;;4186031;28;19951;-54
2023/11/26 03:35:00;;;;;;;;;;;15.30;81.90;;;;;;4184740;28;19935;-52
2023/11/26 03:37:41;;;;;;;;;;;15.30;81.80;;;;;;4181033;28;19935;-55
2023/11/26 03:40:22;;;;;;;;;;;15.30;81.80;;;;;;4184544;28;19963;-55
2023/11/26 03:43:04;;;;;;;;;;;15.30;81.80;;;;;;4187142;28;20371;-55
2023/11/26 03:45:47;;;;;;;;;;;15.20;82.80;;;;;;4186606;28;19935;-53
2023/11/26 03:48:28;;;;;;;;;;;15.30;82.10;;;;;;4178267;28;19932;-53
2023/11/26 03:51:15;;;;;;;;;;;15.30;81.90;;;;;;4186709;28;19935;-54
2023/11/26 03:53:55;;;;;;;;;;;15.30;81.80;;;;;;4182688;28;20699;-54
2023/11/26 03:56:37;;;;;;;;;;;15.30;81.80;;;;;;4175427;28;19975;-54
2023/11/26 03:59:21;;;;;;;;;;;15.30;81.80;;;;;;4183986;28;19943;-54
2023/11/26 04:02:03;;;;;;;;;;;15.30;81.60;;;;;;4186362;28;19931;-53
2023/11/26 04:04:44;;;;;;;;;;;15.30;81.70;;;;;;4187427;28;20013;-52
2023/11/26 04:07:25;;;;;;;;;;;15.30;82.00;;;;;;4177519;28;19936;-49
2023/11/26 04:10:09;;;;;;;;;;;15.30;82.20;;;;;;4171310;28;20414;-54
2023/11/26 04:12:53;;;;;;;;;;;15.30;82.20;;;;;;4169510;28;20010;-53
2023/11/26 04:15:36;;;;;;;;;;;15.30;81.90;;;;;;4172569;28;19951;-55
2023/11/26 04:18:18;;;;;;;;;;;15.30;82.00;;;;;;4169042;28;20291;-54
2023/11/26 04:20:59;;;;;;;;;;;15.40;82.00;;;;;;4170763;28;19982;-52
2023/11/26 04:23:39;;;;;;;;;;;15.40;81.80;;;;;;4170963;28;19932;-54
2023/11/26 04:26:20;;;;;;;;;;;15.40;81.70;;;;;;4170904;28;19940;-54
2023/11/26 04:29:02;;;;;;;;;;;15.40;81.90;;;;;;4170545;28;19932;-54
2023/11/26 04:31:43;;;;;;;;;;;15.30;82.10;;;;;;4181319;28;19939;-54
2023/11/26 04:34:25;;;;;;;;;;;15.40;82.20;;;;;;4186828;28;19936;-52
2023/11/26 04:37:08;;;;;;;;;;;15.40;82.00;;;;;;4173388;28;19932;-53
2023/11/26 04:39:49;;;;;;;;;;;15.40;81.80;;;;;;4187870;28;19935;-56
2023/11/26 04:42:30;;;;;;;;;;;15.40;82.80;;;;;;4184976;28;19977;-56
2023/11/26 04:45:11;;;;;;;;;;;15.40;82.00;;;;;;4171692;28;19931;-56
2023/11/26 04:47:52;;;;;;;;;;;15.40;81.90;;;;;;4173303;28;19932;-56
2023/11/26 04:50:34;;;;;;;;;;;15.40;81.90;;;;;;4153935;28;20413;-50
2023/11/26 04:53:16;;;;;;;;;;;15.40;82.00;;;;;;4169090;28;19932;-53
2023/11/26 04:55:59;;;;;;;;;;;15.40;81.90;;;;;;4173936;28;20454;-52
2023/11/26 04:58:40;;;;;;;;;;;15.40;82.00;;;;;;4159101;28;19999;-57
2023/11/26 05:01:22;;;;;;;;;;;15.30;81.90;;;;;;4153328;28;19936;-55
2023/11/26 05:04:03;;;;;;;;;;;15.30;82.00;;;;;;4177944;28;19936;-57
2023/11/26 05:06:46;;;;;;;;;;;15.30;82.20;;;;;;4186915;28;19993;-56
2023/11/26 05:09:27;;;;;;;;;;;15.20;82.30;;;;;;4160939;28;19989;-55
2023/11/26 05:12:07;;;;;;;;;;;15.30;82.40;;;;;;4168222;28;19967;-56
2023/11/26 05:14:48;;;;;;;;;;;15.30;82.40;;;;;;4157808;28;20399;-55
2023/11/26 05:17:29;;;;;;;;;;;15.30;82.40;;;;;;4187228;28;19998;-54
2023/11/26 05:20:13;;;;;;;;;;;15.30;82.40;;;;;;4179515;28;20054;-55
2023/11/26 05:22:56;;;;;;;;;;;15.40;82.20;;;;;;4185508;28;19931;-56
2023/11/26 05:25:37;;;;;;;;;;;15.50;82.10;;;;;;4190716;28;19931;-55
2023/11/26 05:28:18;;;;;;;;;;;15.40;81.90;;;;;;4190138;28;19936;-55
2023/11/26 05:30:59;;;;;;;;;;;15.50;81.90;;;;;;4186322;28;19935;-53
2023/11/26 05:33:40;;;;;;;;;;;15.50;81.60;;;;;;4187063;28;20063;-54
2023/11/26 05:36:20;;;;;;;;;;;15.60;81.50;;;;;;4175328;28;19999;-56
2023/11/26 05:39:03;;;;;;;;;;;15.60;81.40;;;;;;4173330;28;20002;-55
2023/11/26 05:41:44;;;;;;;;;;;15.60;81.50;;;;;;4177113;28;19973;-55
2023/11/26 05:44:24;;;;;;;;;;;15.60;81.40;;;;;;4173389;28;19931;-55
2023/11/26 05:47:05;;;;;;;;;;;15.70;81.30;;;;;;4188660;28;19935;-55
2023/11/26 05:49:45;;;;;;;;;;;15.60;81.20;;;;;;4188471;28;19931;-55
2023/11/26 05:52:26;;;;;;;;;;;15.70;81.40;;;;;;4189191;28;19931;-55
2023/11/26 05:55:10;;;;;;;;;;;15.70;81.20;;;;;;4189713;28;19970;-56
2023/11/26 05:57:51;;;;;;;;;;;15.70;81.10;;;;;;4189373;28;20382;-54
2023/11/26 06:00:31;;;;;;;;;;;15.70;81.00;;;;;;4180128;28;19932;-56
2023/11/26 06:03:12;;;;;;;;;;;15.70;81.00;;;;;;4156583;28;19979;-56
2023/11/26 06:05:53;;;;;;;;;;;15.60;81.20;;;;;;4171598;28;19935;-56
2023/11/26 06:08:33;;;;;;;;;;;15.60;81.30;;;;;;4157818;28;19948;-53
2023/11/26 06:11:15;;;;;;;;;;;15.50;81.60;;;;;;4178464;28;19981;-55
2023/11/26 06:13:56;;;;;;;;;;;15.50;81.70;;;;;;4185035;28;20291;-54
2023/11/26 06:16:37;;;;;;;;;;;15.60;81.70;;;;;;4188466;28;19936;-55
2023/11/26 06:19:18;;;;;;;;;;;15.60;81.40;;;;;;4172637;28;20267;-56
2023/11/26 06:21:58;;;;;;;;;;;15.60;81.50;;;;;;4168663;28;20074;-58
2023/11/26 06:24:39;;;;;;;;;;;15.50;81.40;;;;;;4157953;28;19936;-55
2023/11/26 06:27:21;;;;;;;;;;;15.50;81.10;;;;;;4156586;28;19931;-52
2023/11/26 06:30:02;;;;;;;;;;;15.50;81.10;;;;;;4157469;28;19936;-54
2023/11/26 06:32:44;;;;;;;;;;;15.50;81.50;;;;;;4172919;28;19935;-54
2023/11/26 06:35:24;;;;;;;;;;;15.60;81.40;;;;;;4157706;28;19963;-55
2023/11/26 06:38:06;;;;;;;;;;;15.60;81.20;;;;;;4160505;28;20435;-54
2023/11/26 06:40:47;;;;;;;;;;;15.60;81.30;;;;;;4184929;28;19973;-53
2023/11/26 06:43:29;;;;;;;;;;;15.60;81.50;;;;;;4156455;28;19932;-51
2023/11/26 06:46:16;;;;;;;;;;;15.60;81.40;;;;;;4155972;28;19932;-56
2023/11/26 06:48:57;;;;;;;;;;;15.60;80.60;;;;;;4179249;28;20387;-53
2023/11/26 06:51:39;;;;;;;;;;;15.50;79.90;;;;;;4158420;28;20018;-52
2023/11/26 06:54:20;;;;;;;;;;;15.60;80.90;;;;;;4171401;28;19936;-53
2023/11/26 06:57:01;;;;;;;;;;;15.60;81.20;;;;;;4167677;28;19951;-55
2023/11/26 06:59:43;;;;;;;;;;;15.60;80.90;;;;;;4181635;28;19931;-52
2023/11/26 07:02:23;;;;;;;;;;;15.60;80.80;;;;;;4175773;28;19935;-53
2023/11/26 07:05:05;;;;;;;;;;;15.60;80.80;;;;;;4188430;28;19977;-53
2023/11/26 07:07:46;;;;;;;;;;;15.70;80.80;;;;;;4179780;28;20479;-49
2023/11/26 07:10:27;;;;;;;;;;;15.70;80.70;;;;;;4179345;28;19935;-49
2023/11/26 07:13:07;;;;;;;;;;;15.60;80.90;;;;;;4188095;28;19935;-51
2023/11/26 07:15:49;;;;;;;;;;;15.70;81.20;;;;;;4183299;28;19933;-52
2023/11/26 07:18:30;;;;;;;;;;;15.70;81.50;;;;;;4172117;28;20059;-52
2023/11/26 07:21:10;;;;;;;;;;;15.60;81.90;;;;;;4178479;28;19951;-52
2023/11/26 07:23:51;;;;;;;;;;;15.60;82.20;;;;;;4184545;28;19931;-49
2023/11/26 07:26:32;;;;;;;;;;;15.60;82.20;;;;;;4172332;28;21293;-52
2023/11/26 07:29:13;;;;;;;;;;;15.60;82.50;;;;;;4188190;28;20321;-51
2023/11/26 07:31:55;;;;;;;;;;;15.60;82.70;;;;;;4182105;28;19970;-49
2023/11/26 07:34:35;;;;;;;;;;;15.60;83.00;;;;;;4175643;28;20021;-52
2023/11/26 07:37:16;;;;;;;;;;;15.70;82.80;;;;;;4186230;28;20387;-52
2023/11/26 07:39:57;;;;;;;;;;;15.80;82.50;;;;;;4187380;28;20410;-55
2023/11/26 07:42:37;;;;;;;;;;;15.80;82.20;;;;;;4170178;28;19972;-52
2023/11/26 07:45:19;;;;;;;;;;;15.90;81.90;;;;;;4156511;28;19932;-53
2023/11/26 07:48:02;;;;;;;;;;;15.90;81.50;;;;;;4184739;28;19931;-51
2023/11/26 07:50:44;;;;;;;;;;;16.00;80.70;;;;;;4187418;28;19948;-50
2023/11/26 07:53:24;;;;;;;;;;;16.10;80.20;;;;;;4177995;28;19931;-53
2023/11/26 07:56:06;;;;;;;;;;;16.10;79.90;;;;;;4176251;28;19936;-51
2023/11/26 07:58:47;;;;;;;;;;;16.10;79.60;;;;;;4153295;28;20065;-54
2023/11/26 08:01:27;;;;;;;;;;;16.10;79.50;;;;;;4186431;28;19931;-50
2023/11/26 08:04:10;;;;;;;;;;;16.10;79.50;;;;;;4182066;28;19931;-52
2023/11/26 08:06:52;;;;;;;;;;;16.20;79.60;;;;;;4169112;28;19944;-51
2023/11/26 08:09:35;;;;;;;;;;;16.20;79.30;;;;;;4175781;28;19932;-49
2023/11/26 08:12:17;;;;;;;;;;;16.30;79.00;;;;;;4182094;28;19958;-48
2023/11/26 08:15:03;;;;;;;;;;;16.30;79.00;;;;;;4155052;28;19931;-48
2023/11/26 08:17:48;;;;;;;;;;;16.30;78.90;;;;;;4162174;28;20022;-52
2023/11/26 08:20:30;;;;;;;;;;;16.30;78.70;;;;;;4170605;28;19991;-49
2023/11/26 08:23:12;;;;;;;;;;;16.40;78.60;;;;;;4170680;28;19931;-49
2023/11/26 08:25:56;;;;;;;;;;;16.30;78.40;;;;;;4168181;28;19939;-53
2023/11/26 08:28:42;;;;;;;;;;;16.30;78.60;;;;;;4169711;28;19932;-50
2023/11/26 08:31:27;;;;;;;;;;;16.30;78.80;;;;;;4170596;28;20395;-50
2023/11/26 08:34:07;;;;;;;;;;;16.30;79.00;;;;;;4152673;28;19987;-48
2023/11/26 08:36:51;;;;;;;;;;;16.30;78.90;;;;;;4138521;28;19932;-51
2023/11/26 08:39:34;;;;;;;;;;;16.30;78.90;;;;;;4139991;28;20464;-52
2023/11/26 08:42:16;;;;;;;;;;;16.20;78.90;;;;;;4154318;28;19948;-50
2023/11/26 08:44:57;;;;;;;;;;;16.10;80.00;;;;;;4157593;28;19932;-49
2023/11/26 08:47:42;;;;;;;;;;;16.00;79.50;;;;;;4168705;28;19977;-52
2023/11/26 08:50:23;;;;;;;;;;;15.90;79.90;;;;;;4170965;28;19932;-51
2023/11/26 08:53:09;;;;;;;;;;;15.80;80.50;;;;;;4172204;28;20411;-48
2023/11/26 08:55:50;;;;;;;;;;;15.90;80.80;;;;;;4186161;28;19935;-53
2023/11/26 08:58:31;;;;;;;;;;;15.90;81.60;;;;;;4188656;28;20070;-53
2023/11/26 09:01:11;;;;;;;;;;;15.90;80.40;;;;;;4188337;28;19932;-51
2023/11/26 09:03:52;;;;;;;;;;;16.00;80.30;;;;;;4184345;28;20055;-52
2023/11/26 09:06:33;;;;;;;;;;;16.00;80.40;;;;;;4190002;28;19977;-50
2023/11/26 09:09:16;;;;;;;;;;;15.90;80.40;;;;;;4190472;28;19935;-52
2023/11/26 09:11:57;;;;;;;;;;;15.90;80.60;;;;;;4175686;28;20059;-52
2023/11/26 09:14:37;;;;;;;;;;;15.80;81.00;;;;;;4174223;28;20409;-49
2023/11/26 09:17:18;;;;;;;;;;;15.80;81.40;;;;;;4189720;28;19931;-49
2023/11/26 09:19:59;;;;;;;;;;;15.80;81.20;;;;;;4176058;28;19932;-49
2023/11/26 09:22:40;;;;;;;;;;;15.90;81.20;;;;;;4187988;28;20005;-53
2023/11/26 09:25:23;;;;;;;;;;;15.90;81.00;;;;;;4189984;28;19935;-54
2023/11/26 09:28:05;;;;;;;;;;;15.80;81.10;;;;;;4189721;28;20344;-52
2023/11/26 09:30:45;;;;;;;;;;;15.80;81.10;;;;;;4190294;28;20303;-53
2023/11/26 09:33:26;;;;;;;;;;;15.80;81.30;;;;;;4180703;28;19936;-49
2023/11/26 09:36:07;;;;;;;;;;;15.70;81.50;;;;;;4173080;28;19978;-48
2023/11/26 09:38:47;;;;;;;;;;;15.60;81.80;;;;;;4177044;28;19932;-48
2023/11/26 09:41:30;;;;;;;;;;;15.60;83.10;;;;;;4175767;28;19935;-53
2023/11/26 09:44:10;;;;;;;;;;;15.60;82.80;;;;;;4166395;28;19943;-53
2023/11/26 09:46:51;;;;;;;;;;;15.90;82.10;;;;;;4159435;28;19936;-53
2023/11/26 09:49:32;;;;;;;;;;;16.30;80.60;;;;;;4171714;28;19931;-52
2023/11/26 09:52:14;;;;;;;;;;;16.80;78.90;;;;;;4186785;28;19932;-49
2023/11/26 09:54:56;;;;;;;;;;;17.20;77.00;;;;;;4189519;28;19931;-51
2023/11/26 09:57:39;;;;;;;;;;;17.60;75.50;;;;;;4189031;28;19935;-49
2023/11/26 10:00:21;;;;;;;;;;;18.00;74.30;;;;;;4173800;28;19955;-52
2023/11/26 10:03:02;;;;;;;;;;;18.30;73.10;;;;;;4171193;28;19975;-49
2023/11/26 10:05:44;;;;;;;;;;;18.50;72.20;;;;;;4159393;28;19952;-53
2023/11/26 10:08:28;;;;;;;;;;;18.70;71.50;;;;;;4189381;28;19978;-51
2023/11/26 10:11:09;;;;;;;;;;;18.80;71.60;;;;;;4188185;28;19932;-50
2023/11/26 10:13:51;;;;;;;;;;;18.90;70.30;;;;;;4188750;28;19936;-49
2023/11/26 10:16:33;;;;;;;;;;;19.00;70.00;;;;;;4185519;28;20477;-50
2023/11/26 10:19:25;;;;;;;;;;;18.90;70.10;;;;;;4174370;28;20373;-53
2023/11/26 10:22:06;;;;;;;;;;;18.80;70.30;;;;;;4179418;28;19931;-53
2023/11/26 10:24:46;;;;;;;;;;;18.70;70.60;;;;;;4186262;28;19967;-52
2023/11/26 10:27:27;;;;;;;;;;;18.60;71.00;;;;;;4174496;28;20374;-50
2023/11/26 10:30:09;;;;;;;;;;;18.60;71.50;;;;;;4175020;28;19993;-51
2023/11/26 10:32:58;;;;;;;;;;;18.70;71.70;;;;;;4175903;28;19936;-53
2023/11/26 10:35:46;;;;;;;;;;;18.80;71.30;;;;;;4161076;28;19931;-51
2023/11/26 10:38:34;;;;;;;;;;;18.80;71.00;;;;;;4184891;28;19940;-53
2023/11/26 10:41:14;;;;;;;;;;;18.80;70.50;;;;;;4163369;28;19936;-50
2023/11/26 10:43:56;;;;;;;;;;;18.80;70.30;;;;;;4184988;28;19932;-53
2023/11/26 10:46:38;;;;;;;;;;;18.80;70.00;;;;;;4184043;28;19931;-50
2023/11/26 10:49:23;;;;;;;;;;;18.80;69.80;;;;;;4188091;28;19935;-51
2023/11/26 10:52:07;;;;;;;;;;;18.70;69.70;;;;;;4161352;28;19932;-52
2023/11/26 10:54:53;;;;;;;;;;;18.60;69.80;;;;;;4172022;28;20296;-49
2023/11/26 10:57:39;;;;;;;;;;;18.50;70.40;;;;;;4176206;28;19931;-52
2023/11/26 11:00:21;;;;;;;;;;;18.40;70.60;;;;;;4165013;28;19951;-48
2023/11/26 11:03:04;;;;;;;;;;;18.40;70.60;;;;;;4162430;28;19932;-52
2023/11/26 11:05:47;;;;;;;;;;;18.50;70.70;;;;;;4170775;28;20395;-49
2023/11/26 11:08:27;;;;;;;;;;;18.50;70.70;;;;;;4194979;28;19930;-53
2023/11/26 11:11:13;;;;;;;;;;;18.60;70.40;;;;;;4178161;28;19948;-53
2023/11/26 11:13:56;;;;;;;;;;;18.60;70.30;;;;;;4172259;28;19950;-53
2023/11/26 11:16:37;;;;;;;;;;;18.60;70.40;;;;;;4180649;28;19962;-53
2023/11/26 11:19:33;;;;;;;;;;;18.70;70.80;;;;;;4170778;28;19990;-52
2023/11/26 11:22:16;;;;;;;;;;;18.70;71.90;;;;;;4170074;28;19932;-51
2023/11/26 11:25:05;;;;;;;;;;;18.80;71.40;;;;;;4177225;28;19948;-53
2023/11/26 11:27:49;;;;;;;;;;;18.70;71.40;;;;;;4180366;28;19931;-53
2023/11/26 11:30:49;;;;;;;;;;;18.70;71.70;;;;;;4184272;28;19960;-52
2023/11/26 11:33:30;;;;;;;;;;;18.60;73.00;;;;;;4173537;28;19936;-50
2023/11/26 11:36:30;;;;;;;;;;;18.50;72.60;;;;;;4171659;28;19936;-53
2023/11/26 11:39:13;;;;;;;;;;;18.40;73.10;;;;;;4181989;28;19931;-51
2023/11/26 11:42:13;;;;;;;;;;;18.40;73.20;;;;;;4175260;28;19936;-52
2023/11/26 11:44:54;;;;;;;;;;;18.50;73.20;;;;;;4175331;28;19969;-53
2023/11/26 11:47:39;;;;;;;;;;;18.50;73.10;;;;;;4197124;28;20448;-50
2023/11/26 11:50:30;;;;;;;;;;;18.60;73.00;;;;;;4189492;28;19931;-55
2023/11/26 11:53:10;;;;;;;;;;;18.60;72.80;;;;;;4188169;28;19997;-53
2023/11/26 11:55:58;;;;;;;;;;;18.60;72.90;;;;;;4179615;28;19981;-51
2023/11/26 11:58:40;;;;;;;;;;;18.60;72.80;;;;;;4186429;28;20050;-52
2023/11/26 12:01:21;;;;;;;;;;;18.70;72.80;;;;;;4170881;28;20453;-53
2023/11/26 12:04:02;;;;;;;;;;;18.70;72.60;;;;;;4170858;28;20021;-51
2023/11/26 12:06:48;;;;;;;;;;;18.70;72.50;;;;;;4157267;28;19968;-51
2023/11/26 12:09:34;;;;;;;;;;;18.70;73.50;;;;;;4178959;28;19981;-53
2023/11/26 12:12:20;;;;;;;;;;;18.60;72.80;;;;;;4187800;28;19932;-52
2023/11/26 12:15:07;;;;;;;;;;;18.60;73.20;;;;;;4186991;28;19950;-52
2023/11/26 12:17:49;;;;;;;;;;;18.60;73.50;;;;;;4170785;28;20274;-48
2023/11/26 12:20:30;;;;;;;;;;;18.70;74.10;;;;;;4187263;28;19931;-51
2023/11/26 12:23:11;;;;;;;;;;;18.80;75.00;;;;;;4187766;28;20601;-48
2023/11/26 12:25:52;;;;;;;;;;;18.80;74.10;;;;;;4185324;28;19935;-49
2023/11/26 12:28:44;;;;;;;;;;;18.80;74.20;;;;;;4184463;28;20370;-52
2023/11/26 12:31:24;;;;;;;;;;;18.80;74.40;;;;;;4188007;28;20850;-53
2023/11/26 12:34:05;;;;;;;;;;;18.80;74.30;;;;;;4183040;28;19967;-50
2023/11/26 12:37:31;;;;;;;1.27;0.90;;;18.80;73.70;;;;;;4202508;27;20114;-53
2023/11/26 12:40:13;;;;;;;4.03;0.77;;;18.80;74.00;;;;;;4212787;28;20497;-49
2023/11/26 12:42:54;;;;;;;1.83;0.90;;;18.80;73.80;;;;;;4218765;28;20104;-56
2023/11/26 12:45:35;;;;;;;1.03;0.70;;;18.90;73.80;;;;;;4186520;28;20075;-51
2023/11/26 12:48:16;;;;;;;2.92;0.75;;;18.90;73.70;;;;;;4201661;28;20417;-51
2023/11/26 12:50:57;;;;;;;2.00;0.57;;;18.90;73.50;;;;;;4185393;28;20526;-53
2023/11/26 12:53:39;;;;;;;2.75;0.60;;;18.90;73.80;;;;;;4197615;28;20052;-56
2023/11/26 12:56:21;;;;;;;3.30;0.73;;;18.90;73.70;;;;;;4207468;28;20092;-53
2023/11/26 12:59:03;;;;;;;2.47;0.60;;;18.90;73.60;;;;;;4215822;28;20054;-52
2023/11/26 13:01:44;;;;;;;1.80;1.17;;;18.90;73.90;;;;;;4201981;28;20059;-53
2023/11/26 13:04:31;;;;;;;3.15;1.08;;;18.80;73.90;;;;;;4185030;28;20047;-52
2023/11/26 13:07:12;;;;;;;2.10;0.82;;;18.80;73.60;;;;;;4185101;28;20392;-50
2023/11/26 13:09:57;;;;;;;4.30;0.93;;;18.90;73.20;;;;;;4192833;28;20059;-54
2023/11/26 13:12:44;;;;;;;4.68;1.48;;;18.90;72.90;;;;;;4199731;28;20190;-51
2023/11/26 13:15:26;;;;;;;2.25;0.80;;;18.90;72.80;;;;;;4200805;28;20051;-56
2023/11/26 13:18:07;;;;;;;0.98;0.80;;;18.80;73.20;;;;;;4200709;28;20510;-52
2023/11/26 13:20:48;;;;;;;1.45;0.93;;;18.70;74.10;;;;;;4199013;28;20589;-56
2023/11/26 13:23:29;;;;;;;11.18;3.50;;;18.70;74.50;;;;;;4184520;28;20055;-56
2023/11/26 13:26:12;;;;;;;2.75;1.60;;;18.80;74.50;;;;;;4190858;28;20487;-53
2023/11/26 13:28:52;;;;;;;5.40;0.98;;;18.80;74.40;;;;;;4188709;28;20059;-55
2023/11/26 13:31:33;;;;;;;2.67;0.57;;;18.80;75.40;;;;;;4201532;28;20142;-54
2023/11/26 13:34:14;;;;;;;1.20;0.57;;;18.80;74.60;;;;;;4189641;28;20375;-50
2023/11/26 13:36:55;;;;;;;5.00;0.90;;;18.80;74.60;;;;;;4187734;28;20641;-51
2023/11/26 13:39:36;;;;;;;2.03;0.82;;;18.80;74.40;;;;;;4195785;28;20126;-50
2023/11/26 13:42:18;;;;;;;1.88;0.60;;;18.80;74.30;;;;;;4200694;28;20568;-50
2023/11/26 13:44:59;;;;;;;2.33;0.68;;;18.80;74.30;;;;;;4197442;28;20394;-54
2023/11/26 13:47:44;;;;;;;2.50;0.65;;;18.80;74.20;;;;;;4182203;28;20174;-51
2023/11/26 13:50:30;;;;;;;1.02;0.63;;;18.80;74.00;;;;;;4188049;28;20170;-51
2023/11/26 13:53:11;;;;;;;0.90;0.50;;;18.80;74.00;;;;;;4184128;28;20372;-49
2023/11/26 13:55:53;;;;;;;3.70;1.33;;;18.70;74.00;;;;;;4189177;28;20059;-54
2023/11/26 13:58:36;;;;;;;0.70;0.70;;;18.60;74.30;;;;;;4188823;28;20052;-51
2023/11/26 14:01:17;;;;;;;1.95;0.65;;;18.50;74.70;;;;;;4189606;28;20518;-52
2023/11/26 14:03:59;;;;;;;0.63;0.63;;;18.50;75.30;;;;;;4172730;28;20384;-53
2023/11/26 14:06:40;;;;;;;1.95;0.57;;;18.40;75.50;;;;;;4176691;28;20174;-54
2023/11/26 14:09:21;;;;;;;0.50;0.50;;;18.30;75.60;;;;;;4187252;28;20391;-51
2023/11/26 14:12:02;;;;;;;2.45;0.90;;;18.30;76.00;;;;;;4177126;28;20056;-58
2023/11/26 14:14:44;;;;;;;0.80;0.80;;;18.20;77.10;;;;;;4188669;28;20054;-53
2023/11/26 14:17:25;;;;;;;2.58;0.90;;;18.20;76.20;;;;;;4188278;28;20364;-52
2023/11/26 14:20:07;;;;;;;2.70;0.80;;;18.10;76.20;;;;;;4187958;28;20512;-51
2023/11/26 14:22:49;;;;;;;2.63;1.15;;;18.10;76.60;;;;;;4188897;28;20098;-53
2023/11/26 14:25:32;;;;;;;0.70;0.70;;;18.10;76.70;;;;;;4188564;28;20132;-53
2023/11/26 14:28:13;;;;;;;2.75;1.20;;;18.20;76.70;;;;;;4187109;28;20056;-51
2023/11/26 14:30:55;;;;;;;5.32;1.10;;;18.20;76.40;;;;;;4188856;28;20404;-52
2023/11/26 14:33:37;;;;;;;2.10;0.85;;;18.30;76.20;;;;;;4178297;28;20453;-52
2023/11/26 14:36:18;;;;;;;2.83;0.80;;;18.30;76.30;;;;;;4185196;28;20109;-52
2023/11/26 14:38:59;;;;;;;1.65;0.98;;;18.20;76.30;;;;;;4188307;28;20051;-49
2023/11/26 14:41:40;;;;;;;1.98;1.20;;;18.20;76.20;;;;;;4172448;28;20047;-52
2023/11/26 14:44:21;;;;;;;3.50;0.80;;;18.20;76.10;;;;;;4157185;28;20052;-50
2023/11/26 14:47:05;;;;;;;1.33;0.85;;;18.20;76.20;;;;;;4180686;28;20055;-52
2023/11/26 14:49:46;;;;;;;1.30;1.17;;;18.10;76.40;;;;;;4192401;28;20047;-49
2023/11/26 14:52:29;;;;;;;2.42;0.98;;;18.10;76.80;;;;;;4192869;28;20075;-51
2023/11/26 14:55:12;;;;;;;1.25;1.02;;;18.00;76.90;;;;;;4177936;28;20768;-52
2023/11/26 14:57:53;;;;;;;2.15;1.27;;;18.10;76.80;;;;;;4171954;28;20405;-50
2023/11/26 15:00:35;;;;;;;2.55;1.33;;;18.10;77.00;;;;;;4173684;28;20130;-49
2023/11/26 15:03:17;;;;;;;1.90;1.02;;;18.00;77.00;;;;;;4184057;28;20085;-50
2023/11/26 15:05:58;;;;;;;2.58;1.60;;;18.00;77.00;;;;;;4188026;28;20183;-50
2023/11/26 15:08:39;;;;;;;1.67;0.98;;;17.90;77.10;;;;;;4187929;28;20059;-52
2023/11/26 15:11:20;;;;;;;3.78;1.33;;;17.80;77.80;;;;;;4187861;28;20056;-53
2023/11/26 15:14:03;;;;;;;1.13;1.02;;;17.90;78.10;;;;;;4188066;28;20063;-48
2023/11/26 15:16:44;;;;;;;3.17;1.45;;;17.90;78.10;;;;;;4157619;28;20060;-55
2023/11/26 15:19:26;;;;;;;1.15;0.90;;;18.00;77.80;;;;;;4179226;28;20047;-51
2023/11/26 15:22:08;;;;;;;2.33;1.27;;;18.00;77.20;;;;;;4188560;28;20205;-51
2023/11/26 15:24:50;;;;;;;5.18;1.40;;;18.10;77.30;;;;;;4173529;28;20068;-50
2023/11/26 15:27:31;;;;;;;3.10;1.17;;;18.20;77.70;;;;;;4185957;28;20506;-53